新東京国際空港の過去48時間の天気

新東京国際空港 (Tokyo/New Tokyo Intl)

現在時刻: 10/18 13:03 JST (10/18 04:03 UTC) 以下の時間は現地時間です。

過去48時間のMETAR気象情報
時間 風向 風速(m/s) 視程 気温(℃) 湿度(%) 気圧(hPa) 天気現象
18 12:30 北東 7 10km以上 19 68 1015
18 12:00 北東 6 10km以上 19 68 1015
18 11:30 北東 7 10km以上 20 68 1015
18 11:00 北東 7 10km以上 20 64 1015
18 10:30 北北東 7 10km以上 19 73 1016
18 10:00 北北東 6 10km以上 19 73 1016
18 09:30 北北東 6 10km以上 19 68 1016
18 09:00 北北東 5 10km以上 18 77 1016
18 08:30 北北東 6 10km以上 18 77 1016
18 08:00 6 10km以上 17 77 1016
18 07:30 5 10km以上 16 82 1016
18 07:00 5 10km以上 15 82 1016
18 06:30 5 10km以上 14 88 1015
18 06:00 北北西 4 10km以上 12 94 1015
18 05:30 3 10km以上 13 88 1015
18 05:00 4 10km以上 14 88 1015
18 04:30 北北西 3 10km以上 13 94 1015
18 04:00 北北西 3 10km以上 13 94 1014
18 03:30 北北西 3 10km以上 13 94 1014
18 03:00 北北西 3 10km以上 13 94 1014
18 02:30 北北西 3 10km以上 13 100 1014
18 02:00 北北西 3 10km以上 14 94 1014
18 01:30 北北西 3 10km以上 14 94 1014
18 01:00 北北西 3 10km以上 14 94 1014
18 00:30 北北西 2 10km以上 14 94 1013
18 00:00 3 10km以上 15 88 1013
17 23:30 北北西 2 10km以上 15 88 1014
17 23:00 北北東 3 10km以上 15 88 1013
17 22:30 北北東 3 10km以上 17 83 1014
17 22:00 北北東 3 10km以上 17 77 1014
17 21:30 3 10km以上 17 77 1014
17 21:00 北東 3 10km以上 17 77 1013
17 20:30 北北東 4 10km以上 17 77 1013
17 20:00 北北東 5 10km以上 17 77 1013
17 19:30 北北東 4 10km以上 17 77 1013
17 19:00 北東 4 10km以上 17 77 1013
17 18:30 北北東 5 10km以上 18 73 1013
17 18:00 北東 4 10km以上 18 68 1013
17 17:30 北東 5 10km以上 18 73 1012
17 17:00 北東 5 10km以上 18 73 1012
17 16:30 北東 5 10km以上 18 77 1011
17 16:00 北東 6 10km以上 19 73 1011
17 15:30 北東 7 10km以上 19 73 1011
17 15:00 北東 8 10km以上 19 73 1010
17 14:30 北北東 7 10km以上 20 68 1010
17 14:00 北北東 7 10km以上 20 68 1009
17 13:30 北北東 6 10km以上 21 64 1009
17 13:00 北東 6 10km以上 21 64 1009
17 12:30 北北東 6 10km以上 21 60 1009
17 12:00 北東 5 10km以上 21 64 1010
17 11:30 北東 5 10km以上 21 69 1010
17 11:00 北北東 5 10km以上 20 78 1010
17 10:47 北北東 5 10km以上 20 78 1010
17 10:30 北北東 4 10km以上 21 78 1010
17 10:00 5 10km以上 19 83 1010
17 09:30 4 9000m 18 88 1010
17 09:00 北北西 4 8000m 17 94 1010
17 08:43 北北西 4 6000m 17 94 1010 弱い雨
17 08:30 北北西 3 4500m 16 100 1010 もや
17 08:00 北西 2 4500m 16 94 1010 弱い雨 もや
17 07:30 北西 2 4500m 16 94 1010 もや
17 07:00 北西 2 5000m 16 94 1009 もや
17 06:46 北西 2 5000m 16 94 1009 弱い雨 もや
17 06:30 北西 2 4500m 16 94 1009 弱い雨 もや
17 06:00 北北西 3 4000m 15 100 1009 弱い雨 もや
17 05:44 北西 3 4000m 15 100 1009 弱い雨 もや
17 05:30 北西 2 5000m 16 94 1009 弱い雨 もや
17 05:00 北西 2 6000m 16 94 1009 弱い雨
17 04:30 北北西 3 8000m 16 94 1008 弱い雨
17 04:00 北西 2 7000m 16 94 1008 弱い雨
17 03:30 北西 2 8000m 16 94 1008 弱い雨
17 03:00 北西 2 10km以上 16 94 1008
17 02:30 北北西 3 10km以上 16 94 1008 弱い雨
17 02:00 4 9000m 16 94 1008 弱い雨
17 01:30 北北西 3 9000m 16 100 1008 弱い雨
17 01:00 北北西 3 9000m 16 94 1009 弱い雨
17 00:30 北北西 4 8000m 16 94 1009 弱い雨
17 00:00 北北西 4 8000m 17 94 1009
16 23:30 北北西 4 8000m 17 94 1009
16 23:00 北北西 4 10km以上 17 94 1009
16 22:30 4 10km以上 17 94 1010
16 22:00 4 10km以上 18 88 1010
16 21:30 4 10km以上 18 88 1010
16 21:00 5 10km以上 18 88 1010
16 20:30 5 10km以上 18 88 1010
16 20:00 北北東 4 10km以上 18 88 1011
16 19:30 5 10km以上 18 88 1011
16 19:00 北北東 4 10km以上 18 88 1011
16 18:30 北北東 5 10km以上 19 83 1011
16 18:00 5 10km以上 19 83 1011
16 17:30 北北東 5 10km以上 19 88 1011
16 17:00 北北東 4 10km以上 19 88 1012
16 16:30 北北東 3 10km以上 19 88 1012
16 16:00 北北東 4 10km以上 19 88 1012
16 15:30 北北東 4 10km以上 20 83 1012
16 15:00 北北東 4 10km以上 20 78 1012
16 14:30 北東 4 10km以上 20 78 1012
16 14:00 北北東 4 10km以上 20 78 1012
16 13:30 北北東 4 10km以上 20 78 1012
RJAA 180330Z 04013KT 9999 FEW025 SCT030 BKN100 19/13 Q1015 NOSIG RMK 1CU025 4CU030 5AC100 A2999
RJAA 180300Z 04011KT 010V090 9999 FEW025 BKN030 19/13 Q1015 NOSIG RMK 1CU025 6CU030 A3000
RJAA 180230Z 04014KT 010V070 9999 FEW025 SCT030 20/14 Q1015 NOSIG RMK 1CU025 3CU030 A3000
RJAA 180200Z 04013KT 360V070 9999 SCT025 20/13 Q1015 NOSIG RMK 3CU025 A3000
RJAA 180130Z 03014KT 9999 FEW025 SCT180 19/14 Q1016 NOSIG RMK 2CU025 3AC180 A3001
RJAA 180100Z 03011KT 360V070 9999 FEW020 BKN025 19/14 Q1016 NOSIG RMK 1CU020 5CU025 A3002
RJAA 180030Z 03012KT 9999 SCT020 19/13 Q1016 NOSIG RMK 3CU020 A3001
RJAA 180000Z 02010KT 9999 FEW025 SCT100 18/14 Q1016 NOSIG RMK 2CU025 3AC100 A3001
RJAA 172330Z 02011KT 9999 FEW025 SCT100 18/14 Q1016 NOSIG RMK 1CU025 3AC100 A3001
RJAA 172300Z 36011KT 9999 FEW025 17/13 Q1016 NOSIG RMK 1CU025 A3000
RJAA 172230Z 36010KT 9999 FEW020 16/13 Q1016 NOSIG RMK 1CU020 A3001
RJAA 172200Z 36009KT 9999 FEW020 15/12 Q1016 NOSIG RMK 1CU020 A3001
RJAA 172130Z 01009KT 9999 FEW020 14/12 Q1015 NOSIG RMK 1CU020 A2999
RJAA 172100Z 34008KT 9999 FEW020 SCT/// 12/11 Q1015 NOSIG
RJAA 172030Z 35006KT 9999 FEW020 BKN/// 13/11 Q1015 NOSIG RMK 1CU020 A2998
RJAA 172000Z 36008KT 9999 FEW020 SCT100 BKN/// 14/12 Q1015 NOSIG RMK 1CU020 3AC100 A2998
RJAA 171930Z 34006KT 9999 FEW020 SCT100 BKN/// 13/12 Q1015 NOSIG
RJAA 171900Z 33005KT 9999 FEW020 BKN/// 13/12 Q1014 NOSIG
RJAA 171830Z 33005KT 9999 FEW020 SCT/// 13/12 Q1014 NOSIG
RJAA 171800Z 33006KT 9999 FEW020 BKN/// 13/12 Q1014 NOSIG RMK 1CU020 A2995
RJAA 171730Z 33006KT 9999 FEW020 BKN/// 13/13 Q1014 NOSIG
RJAA 171700Z 33006KT 9999 FEW020 BKN/// 14/13 Q1014 NOSIG
RJAA 171630Z 33005KT 9999 FEW020 BKN/// 14/13 Q1014 NOSIG
RJAA 171600Z 33005KT 9999 FEW020 SCT/// 14/13 Q1014 NOSIG RMK 1CU020 A2994
RJAA 171530Z 34003KT 310V010 9999 FEW020 BKN/// 14/13 Q1013 NOSIG
RJAA 171500Z 01006KT 9999 FEW020 SCT200 BKN/// 15/13 Q1013 NOSIG RMK 1CU020 4AC200 A2994
RJAA 171430Z 33004KT 9999 FEW020 BKN/// 15/13 Q1014 NOSIG RMK 1CU020 A2994
RJAA 171400Z 02006KT 9999 FEW020 BKN/// 15/13 Q1013 NOSIG
RJAA 171330Z 02006KT 9999 FEW020 SCT110 BKN/// 17/14 Q1014 NOSIG
RJAA 171300Z 02006KT 9999 FEW020 SCT110 BKN/// 17/13 Q1014 NOSIG
RJAA 171230Z 01006KT 9999 FEW020 SCT080 BKN110 17/13 Q1014 NOSIG RMK 1CU020 3AC080 6AC110 A2995
RJAA 171200Z 04006KT 9999 FEW020 BKN100 BKN/// 17/13 Q1013 NOSIG
RJAA 171130Z 03008KT 9999 FEW020 SCT080 BKN110 17/13 Q1013 NOSIG RMK 1CU020 3AC080 5AC110 A2994
RJAA 171100Z 03009KT 9999 FEW020 BKN080 BKN110 17/13 Q1013 NOSIG RMK 1CU020 5AC080 7AC110 A2994
RJAA 171030Z 03007KT 360V060 9999 FEW020 BKN080 17/13 Q1013 NOSIG RMK 1CU020 7AC080 A2993
RJAA 171000Z 04007KT 010V080 9999 FEW020 SCT080 BKN110 17/13 Q1013 NOSIG RMK 1CU020 4AC080 6AC110 A2993
RJAA 170930Z 03009KT 360V060 9999 FEW020 BKN110 BKN/// 18/13 Q1013 NOSIG
RJAA 170900Z 04008KT 010V070 9999 FEW020 BKN110 BKN/// 18/12 Q1013 WS R34L NOSIG
RJAA 170830Z 04009KT 350V070 9999 FEW020 SCT090 BKN/// 18/13 Q1012 NOSIG
RJAA 170800Z 04010KT 010V070 9999 FEW020 SCT090 BKN/// 18/13 Q1012 NOSIG
RJAA 170730Z 04010KT 9999 FEW020 BKN/// 18/14 Q1011 NOSIG
RJAA 170700Z 04012KT 360V070 9999 FEW020 BKN/// 19/14 Q1011 NOSIG
RJAA 170630Z 05013KT 010V080 9999 FEW020 BKN/// 19/14 Q1011 NOSIG
RJAA 170600Z 05015KT 9999 FEW020 SCT025 BKN/// 19/14 Q1010 NOSIG
RJAA 170530Z 02014KT 9999 FEW025 SCT050 BKN/// 20/14 Q1010 NOSIG
RJAA 170500Z 03014KT 9999 FEW025 BKN030 BKN/// 20/14 Q1009 NOSIG RMK 1CU025 5CU030 A2982
RJAA 170430Z 03011KT 9999 FEW025 BKN/// 21/14 Q1009 NOSIG
RJAA 170400Z 04011KT 340V070 9999 FEW020 BKN080 BKN/// 21/14 Q1009 NOSIG RMK 2CU020 5AC080 A2982
RJAA 170330Z 02012KT 9999 FEW020 BKN120 BKN/// 21/13 Q1009 NOSIG RMK 2CU020 6AC120 A2982
RJAA 170300Z 04010KT 010V070 9999 FEW015 SCT020 BKN/// 21/14 Q1010 NOSIG RMK 1CU015 3CU020 A2982
RJAA 170230Z 04010KT 010V070 9999 FEW012 SCT015 BKN130 21/15 Q1010 NOSIG
RJAA 170200Z 03009KT 360V060 9999 FEW012 BKN015 BKN/// 20/16 Q1010 NOSIG
RJAA 170147Z 03009KT 360V070 9999 FEW012 BKN015 BKN/// 20/16 Q1010 RMK 1CU012 5CU015 A2984
RJAA 170130Z 02008KT 9999 FEW010 BKN014 21/17 Q1010 BECMG TL0230 FEW010 SCT014
RJAA 170100Z 01009KT 340V050 9999 FEW012 BKN130 19/16 Q1010 NOSIG RMK 2CU012 6AC130 A2984
RJAA 170030Z 36008KT 9000 FEW006 BKN130 18/16 Q1010 NOSIG RMK 1ST006 7AC130 A2984
RJAA 170000Z 33008KT 8000 FEW005 BKN130 17/16 Q1010 NOSIG RMK 1ST005 7AC130 A2984
RJAA 162343Z 34007KT 6000 -RA FEW004 BKN120 17/16 Q1010 RMK 1ST004 6AC120 A2984
RJAA 162330Z 33006KT 4500 BR FEW003 SCT080 BKN120 16/16 Q1010 BECMG 8000 NSW
RJAA 162300Z 31003KT 280V350 4500 -RA BR FEW002 BKN070 16/15 Q1010 NOSIG RMK 1ST002 7AC070 A2985
RJAA 162230Z 32003KT 4500 BR FEW002 BKN070 16/15 Q1010 BECMG 8000 NSW
RJAA 162200Z 32004KT 5000 BR FEW003 BKN070 16/15 Q1009 NOSIG RMK 1ST003 7AC070 A2982
RJAA 162146Z 31004KT 5000 -RA BR FEW003 BKN070 BKN110 16/15 Q1009 RMK 1ST003 5AC070 6AS110 A2982
RJAA 162130Z 32004KT 4500 -RA BR FEW002 SCT070 BKN110 16/15 Q1009 BECMG 8000 -RA
RJAA 162100Z 34005KT 4000 -RA BR FEW020 BKN100 15/15 Q1009 BECMG 6000 -RA RMK 1SC020 7AS100 A2981
RJAA 162044Z 32005KT 4000 -RA BR FEW020 OVC100 15/15 Q1009 RMK 1SC020 8AS100 A2981
RJAA 162030Z 32004KT 290V360 5000 -RA BR FEW020 OVC100 16/15 Q1009 NOSIG RMK 1SC020 8AS100 A2981
RJAA 162000Z 31004KT 6000 -RA FEW020 OVC100 16/15 Q1009 NOSIG RMK 1SC020 8AS100 A2981
RJAA 161930Z 34006KT 8000 -RA FEW020 OVC100 16/15 Q1008 NOSIG RMK 1SC020 8AS100 A2979
RJAA 161900Z 31004KT 280V340 7000 -RA FEW020 OVC100 16/15 Q1008 NOSIG RMK 1SC020 8AS100 A2979
RJAA 161830Z 31004KT 8000 -RA FEW010 SCT020 OVC100 16/15 Q1008 TEMPO FEW010 BKN013 RMK 1ST010 3SC020 8AS100 A2979
RJAA 161800Z 32004KT 9999 FEW010 SCT013 OVC100 16/15 Q1008 TEMPO FEW010 BKN013 RMK 1ST010 4CU013 8AS100 A2977
RJAA 161730Z 34005KT 9999 -RA FEW015 OVC110 16/15 Q1008 NOSIG RMK 2CU015 8AS110 A2977
RJAA 161700Z 35007KT 9000 -RA FEW015 OVC110 16/15 Q1008 NOSIG RMK 1CU015 8AS110 A2978
RJAA 161630Z 34006KT 9000 -RA FEW015 OVC110 16/16 Q1008 NOSIG RMK 1CU015 8AS110 A2979
RJAA 161600Z 33006KT 9000 -RA FEW015 OVC100 16/15 Q1009 NOSIG RMK 1CU015 8AS100 A2981
RJAA 161530Z 33008KT 8000 -RA FEW015 SCT080 OVC100 16/15 Q1009 NOSIG RMK 1CU015 3AC080 8AS100 A2981
RJAA 161500Z 33007KT 8000 FEW015 BKN080 17/16 Q1009 NOSIG RMK 1CU015 7AC080 A2982
RJAA 161430Z 34007KT 8000 FEW015 BKN140 BKN/// 17/16 Q1009 NOSIG
RJAA 161400Z 34008KT 9999 FEW015 SCT160 BKN/// 17/16 Q1009 NOSIG
RJAA 161330Z 35007KT 9999 FEW015 SCT180 BKN/// 17/16 Q1010 NOSIG RMK 1CU015 3AC180 A2982
RJAA 161300Z 36008KT 9999 FEW015 BKN/// 18/16 Q1010 NOSIG RMK 1CU015 A2983
RJAA 161230Z 36008KT 9999 FEW020 BKN070 BKN/// 18/16 Q1010 NOSIG
RJAA 161200Z 01009KT 9999 FEW020 SCT160 BKN/// 18/16 Q1010 NOSIG RMK 1CU020 3AC160 A2984
RJAA 161130Z 01009KT 9999 FEW020 SCT060 BKN/// 18/16 Q1010 NOSIG
RJAA 161100Z 02007KT 9999 FEW020 BKN060 BKN/// 18/16 Q1011 NOSIG
RJAA 161030Z 01010KT 9999 FEW020 SCT060 BKN/// 18/16 Q1011 NOSIG RMK 1CU020 4SC060 A2986
RJAA 161000Z 02008KT 9999 FEW020 SCT180 BKN/// 18/16 Q1011 NOSIG RMK 1CU020 3AC180 A2987
RJAA 160930Z 02010KT 9999 FEW020 BKN180 19/16 Q1011 NOSIG RMK 1CU020 7AC180 A2986
RJAA 160900Z 01010KT 9999 FEW020 BKN180 19/16 Q1011 NOSIG RMK 1CU020 7AC180 A2987
RJAA 160830Z 02009KT 9999 FEW020 BKN180 19/17 Q1011 NOSIG RMK 1CU020 7AC180 A2988
RJAA 160800Z 03007KT 9999 FEW015 SCT190 OVC/// 19/17 Q1012 NOSIG
RJAA 160730Z 03006KT 9999 FEW013 BKN/// 19/17 Q1012 NOSIG
RJAA 160700Z 03007KT 360V060 9999 FEW013 BKN/// 19/17 Q1012 NOSIG
RJAA 160630Z 03007KT 360V070 9999 FEW015 OVC/// 20/17 Q1012 NOSIG
RJAA 160600Z 02008KT 360V060 9999 FEW015 SCT050 BKN/// 20/16 Q1012 NOSIG
RJAA 160530Z 04007KT 9999 FEW015 SCT020 BKN050 20/16 Q1012 NOSIG RMK 1CU015 3CU020 6SC050 A2990
RJAA 160500Z 03007KT 340V070 9999 FEW015 BKN050 BKN180 20/16 Q1012 NOSIG RMK 1CU015 6SC050 7AC180 A2990
RJAA 160430Z 03007KT 9999 FEW015 BKN050 BKN180 20/16 Q1012 NOSIG RMK 1CU015 6SC050 7AC180 A2990